sensor_id;sensor_type;location;lat;lon;timestamp;temperature;humidity
48728;DHT22;34527;45.618;5.130;2023-10-09T00:01:04;13.80;99.90
48728;DHT22;34527;45.618;5.130;2023-10-09T00:03:35;13.70;99.90
48728;DHT22;34527;45.618;5.130;2023-10-09T00:06:02;13.70;99.90
48728;DHT22;34527;45.618;5.130;2023-10-09T00:08:29;13.60;99.90
48728;DHT22;34527;45.618;5.130;2023-10-09T00:10:59;13.60;99.90
48728;DHT22;34527;45.618;5.130;2023-10-09T00:13:39;13.60;99.90
48728;DHT22;34527;45.618;5.130;2023-10-09T00:16:19;13.60;99.90
48728;DHT22;34527;45.618;5.130;2023-10-09T00:19:04;13.50;99.90
48728;DHT22;34527;45.618;5.130;2023-10-09T00:21:48;13.40;99.90
48728;DHT22;34527;45.618;5.130;2023-10-09T00:24:15;13.40;99.90
48728;DHT22;34527;45.618;5.130;2023-10-09T00:26:50;13.40;99.90
48728;DHT22;34527;45.618;5.130;2023-10-09T00:29:16;13.50;99.90
48728;DHT22;34527;45.618;5.130;2023-10-09T00:31:53;13.50;99.90
48728;DHT22;34527;45.618;5.130;2023-10-09T00:34:38;13.50;99.90
48728;DHT22;34527;45.618;5.130;2023-10-09T00:37:10;13.40;99.90
48728;DHT22;34527;45.618;5.130;2023-10-09T00:39:42;13.30;99.90
48728;DHT22;34527;45.618;5.130;2023-10-09T00:42:10;13.30;99.90
48728;DHT22;34527;45.618;5.130;2023-10-09T00:44:40;13.30;99.90
48728;DHT22;34527;45.618;5.130;2023-10-09T00:47:09;13.30;99.90
48728;DHT22;34527;45.618;5.130;2023-10-09T00:49:47;13.20;99.90
48728;DHT22;34527;45.618;5.130;2023-10-09T00:52:14;13.20;99.90
48728;DHT22;34527;45.618;5.130;2023-10-09T00:54:55;13.20;99.90
48728;DHT22;34527;45.618;5.130;2023-10-09T00:57:27;13.20;99.90
48728;DHT22;34527;45.618;5.130;2023-10-09T00:59:54;13.10;99.90
48728;DHT22;34527;45.618;5.130;2023-10-09T01:02:27;13.00;99.90
48728;DHT22;34527;45.618;5.130;2023-10-09T01:05:03;13.10;99.90
48728;DHT22;34527;45.618;5.130;2023-10-09T01:07:38;13.10;99.90
48728;DHT22;34527;45.618;5.130;2023-10-09T01:10:10;13.20;99.90
48728;DHT22;34527;45.618;5.130;2023-10-09T01:12:36;13.20;99.90
48728;DHT22;34527;45.618;5.130;2023-10-09T01:15:09;13.10;99.90
48728;DHT22;34527;45.618;5.130;2023-10-09T01:17:43;13.10;99.90
48728;DHT22;34527;45.618;5.130;2023-10-09T01:20:11;13.00;99.90
48728;DHT22;34527;45.618;5.130;2023-10-09T01:22:42;13.00;99.90
48728;DHT22;34527;45.618;5.130;2023-10-09T01:25:09;13.10;99.90
48728;DHT22;34527;45.618;5.130;2023-10-09T01:27:35;13.20;99.90
48728;DHT22;34527;45.618;5.130;2023-10-09T01:30:06;13.10;99.90
48728;DHT22;34527;45.618;5.130;2023-10-09T01:32:32;13.10;99.90
48728;DHT22;34527;45.618;5.130;2023-10-09T01:34:59;13.10;99.90
48728;DHT22;34527;45.618;5.130;2023-10-09T01:37:25;13.20;99.90
48728;DHT22;34527;45.618;5.130;2023-10-09T01:40:01;13.20;99.90
48728;DHT22;34527;45.618;5.130;2023-10-09T01:42:46;13.10;99.90
48728;DHT22;34527;45.618;5.130;2023-10-09T01:45:12;13.00;99.90
48728;DHT22;34527;45.618;5.130;2023-10-09T01:47:44;13.10;99.90
48728;DHT22;34527;45.618;5.130;2023-10-09T01:50:36;13.10;99.90
48728;DHT22;34527;45.618;5.130;2023-10-09T01:53:02;13.10;99.90
48728;DHT22;34527;45.618;5.130;2023-10-09T01:55:32;13.00;99.90
48728;DHT22;34527;45.618;5.130;2023-10-09T01:58:05;12.90;99.90
48728;DHT22;34527;45.618;5.130;2023-10-09T02:00:35;12.90;99.90
48728;DHT22;34527;45.618;5.130;2023-10-09T02:03:09;13.00;99.90
48728;DHT22;34527;45.618;5.130;2023-10-09T02:05:49;12.80;99.90
48728;DHT22;34527;45.618;5.130;2023-10-09T02:08:19;12.80;99.90
48728;DHT22;34527;45.618;5.130;2023-10-09T02:10:52;12.90;99.90
48728;DHT22;34527;45.618;5.130;2023-10-09T02:13:24;12.90;99.90
48728;DHT22;34527;45.618;5.130;2023-10-09T02:15:57;13.00;99.90
48728;DHT22;34527;45.618;5.130;2023-10-09T02:18:38;13.00;99.90
48728;DHT22;34527;45.618;5.130;2023-10-09T02:21:18;13.00;99.90
48728;DHT22;34527;45.618;5.130;2023-10-09T02:23:54;13.00;99.90
48728;DHT22;34527;45.618;5.130;2023-10-09T02:26:22;13.00;99.90
48728;DHT22;34527;45.618;5.130;2023-10-09T02:28:55;12.90;99.90
48728;DHT22;34527;45.618;5.130;2023-10-09T02:31:27;12.90;99.90
48728;DHT22;34527;45.618;5.130;2023-10-09T02:34:01;12.90;99.90
48728;DHT22;34527;45.618;5.130;2023-10-09T02:36:30;12.90;99.90
48728;DHT22;34527;45.618;5.130;2023-10-09T02:38:56;12.90;99.90
48728;DHT22;34527;45.618;5.130;2023-10-09T02:41:22;12.80;99.90
48728;DHT22;34527;45.618;5.130;2023-10-09T02:43:54;12.80;99.90
48728;DHT22;34527;45.618;5.130;2023-10-09T02:46:35;12.70;99.90
48728;DHT22;34527;45.618;5.130;2023-10-09T02:49:02;12.80;99.90
48728;DHT22;34527;45.618;5.130;2023-10-09T02:51:35;12.90;99.90
48728;DHT22;34527;45.618;5.130;2023-10-09T02:54:07;13.20;99.90
48728;DHT22;34527;45.618;5.130;2023-10-09T02:56:47;13.20;99.90
48728;DHT22;34527;45.618;5.130;2023-10-09T02:59:20;13.00;99.90
48728;DHT22;34527;45.618;5.130;2023-10-09T03:01:47;13.00;99.90
48728;DHT22;34527;45.618;5.130;2023-10-09T03:04:14;12.90;99.90
48728;DHT22;34527;45.618;5.130;2023-10-09T03:06:40;12.90;99.90
48728;DHT22;34527;45.618;5.130;2023-10-09T03:09:19;13.00;99.90
48728;DHT22;34527;45.618;5.130;2023-10-09T03:11:52;13.00;99.90
48728;DHT22;34527;45.618;5.130;2023-10-09T03:14:31;13.00;99.90
48728;DHT22;34527;45.618;5.130;2023-10-09T03:16:58;12.90;99.90
48728;DHT22;34527;45.618;5.130;2023-10-09T03:19:33;12.90;99.90
48728;DHT22;34527;45.618;5.130;2023-10-09T03:22:05;12.80;99.90
48728;DHT22;34527;45.618;5.130;2023-10-09T03:24:39;12.70;99.90
48728;DHT22;34527;45.618;5.130;2023-10-09T03:27:08;12.80;99.90
48728;DHT22;34527;45.618;5.130;2023-10-09T03:29:34;12.70;99.90
48728;DHT22;34527;45.618;5.130;2023-10-09T03:32:00;12.60;99.90
48728;DHT22;34527;45.618;5.130;2023-10-09T03:34:26;12.60;99.90
48728;DHT22;34527;45.618;5.130;2023-10-09T03:36:51;12.40;99.90
48728;DHT22;34527;45.618;5.130;2023-10-09T03:39:30;12.40;99.90
48728;DHT22;34527;45.618;5.130;2023-10-09T03:42:01;12.60;99.90
48728;DHT22;34527;45.618;5.130;2023-10-09T03:44:34;12.50;99.90
48728;DHT22;34527;45.618;5.130;2023-10-09T03:47:01;12.50;99.90
48728;DHT22;34527;45.618;5.130;2023-10-09T03:49:28;12.50;99.90
48728;DHT22;34527;45.618;5.130;2023-10-09T03:51:54;12.50;99.90
48728;DHT22;34527;45.618;5.130;2023-10-09T03:54:21;12.50;99.90
48728;DHT22;34527;45.618;5.130;2023-10-09T03:56:48;12.50;99.90
48728;DHT22;34527;45.618;5.130;2023-10-09T03:59:20;12.50;99.90
48728;DHT22;34527;45.618;5.130;2023-10-09T04:01:49;12.60;99.90
48728;DHT22;34527;45.618;5.130;2023-10-09T04:04:19;12.50;99.90
48728;DHT22;34527;45.618;5.130;2023-10-09T04:06:48;12.50;99.90
48728;DHT22;34527;45.618;5.130;2023-10-09T04:09:14;12.50;99.90
48728;DHT22;34527;45.618;5.130;2023-10-09T04:11:46;12.40;99.90
48728;DHT22;34527;45.618;5.130;2023-10-09T04:14:13;12.40;99.90
48728;DHT22;34527;45.618;5.130;2023-10-09T04:16:50;12.30;99.90
48728;DHT22;34527;45.618;5.130;2023-10-09T04:19:48;12.30;99.90
48728;DHT22;34527;45.618;5.130;2023-10-09T04:22:24;12.40;99.90
48728;DHT22;34527;45.618;5.130;2023-10-09T04:24:53;12.20;99.90
48728;DHT22;34527;45.618;5.130;2023-10-09T04:27:18;12.20;99.90
48728;DHT22;34527;45.618;5.130;2023-10-09T04:29:52;12.30;99.90
48728;DHT22;34527;45.618;5.130;2023-10-09T04:32:19;12.40;99.90
48728;DHT22;34527;45.618;5.130;2023-10-09T04:34:45;12.40;99.90
48728;DHT22;34527;45.618;5.130;2023-10-09T04:37:16;12.40;99.90
48728;DHT22;34527;45.618;5.130;2023-10-09T04:40:03;12.30;99.90
48728;DHT22;34527;45.618;5.130;2023-10-09T04:42:39;12.30;99.90
48728;DHT22;34527;45.618;5.130;2023-10-09T04:45:11;12.30;99.90
48728;DHT22;34527;45.618;5.130;2023-10-09T04:47:40;12.20;99.90
48728;DHT22;34527;45.618;5.130;2023-10-09T04:50:15;12.20;99.90
48728;DHT22;34527;45.618;5.130;2023-10-09T04:53:01;12.20;99.90
48728;DHT22;34527;45.618;5.130;2023-10-09T04:55:40;12.20;99.90
48728;DHT22;34527;45.618;5.130;2023-10-09T04:58:09;12.20;99.90
48728;DHT22;34527;45.618;5.130;2023-10-09T05:00:39;12.20;99.90
48728;DHT22;34527;45.618;5.130;2023-10-09T05:03:07;12.10;99.90
48728;DHT22;34527;45.618;5.130;2023-10-09T05:05:38;12.10;99.90
48728;DHT22;34527;45.618;5.130;2023-10-09T05:08:26;12.20;99.90
48728;DHT22;34527;45.618;5.130;2023-10-09T05:10:59;12.30;99.90
48728;DHT22;34527;45.618;5.130;2023-10-09T05:13:25;12.20;99.90
48728;DHT22;34527;45.618;5.130;2023-10-09T05:16:07;12.00;99.90
48728;DHT22;34527;45.618;5.130;2023-10-09T05:18:41;12.10;99.90
48728;DHT22;34527;45.618;5.130;2023-10-09T05:21:07;12.10;99.90
48728;DHT22;34527;45.618;5.130;2023-10-09T05:23:52;12.00;99.90
48728;DHT22;34527;45.618;5.130;2023-10-09T05:26:40;11.90;99.90
48728;DHT22;34527;45.618;5.130;2023-10-09T05:29:12;11.90;99.90
48728;DHT22;34527;45.618;5.130;2023-10-09T05:31:51;11.90;99.90
48728;DHT22;34527;45.618;5.130;2023-10-09T05:34:36;11.80;99.90
48728;DHT22;34527;45.618;5.130;2023-10-09T05:37:19;11.80;99.90
48728;DHT22;34527;45.618;5.130;2023-10-09T05:39:54;11.90;99.90
48728;DHT22;34527;45.618;5.130;2023-10-09T05:42:36;11.90;99.90
48728;DHT22;34527;45.618;5.130;2023-10-09T05:45:12;12.00;99.90
48728;DHT22;34527;45.618;5.130;2023-10-09T05:47:57;12.00;99.90
48728;DHT22;34527;45.618;5.130;2023-10-09T05:50:27;12.00;99.90
48728;DHT22;34527;45.618;5.130;2023-10-09T05:52:56;12.00;99.90
48728;DHT22;34527;45.618;5.130;2023-10-09T05:55:23;11.90;99.90
48728;DHT22;34527;45.618;5.130;2023-10-09T05:58:07;12.00;99.90
48728;DHT22;34527;45.618;5.130;2023-10-09T06:00:59;11.90;99.90
48728;DHT22;34527;45.618;5.130;2023-10-09T06:04:03;12.00;99.90
48728;DHT22;34527;45.618;5.130;2023-10-09T06:06:42;11.90;99.90
48728;DHT22;34527;45.618;5.130;2023-10-09T06:09:12;11.90;99.90
48728;DHT22;34527;45.618;5.130;2023-10-09T06:11:45;12.10;99.90
48728;DHT22;34527;45.618;5.130;2023-10-09T06:14:21;12.10;99.90
48728;DHT22;34527;45.618;5.130;2023-10-09T06:16:54;12.10;99.90
48728;DHT22;34527;45.618;5.130;2023-10-09T06:19:24;12.10;99.90
48728;DHT22;34527;45.618;5.130;2023-10-09T06:21:57;12.20;99.90
48728;DHT22;34527;45.618;5.130;2023-10-09T06:24:30;12.20;99.90
48728;DHT22;34527;45.618;5.130;2023-10-09T06:26:59;12.20;99.90
48728;DHT22;34527;45.618;5.130;2023-10-09T06:29:25;12.30;99.90
48728;DHT22;34527;45.618;5.130;2023-10-09T06:32:10;12.30;99.90
48728;DHT22;34527;45.618;5.130;2023-10-09T06:34:46;12.40;99.90
48728;DHT22;34527;45.618;5.130;2023-10-09T06:37:19;12.50;99.90
48728;DHT22;34527;45.618;5.130;2023-10-09T06:39:51;12.50;99.90
48728;DHT22;34527;45.618;5.130;2023-10-09T06:42:27;12.50;99.90
48728;DHT22;34527;45.618;5.130;2023-10-09T06:45:10;12.60;99.90
48728;DHT22;34527;45.618;5.130;2023-10-09T06:47:38;12.70;99.90
48728;DHT22;34527;45.618;5.130;2023-10-09T06:50:16;12.80;99.90
48728;DHT22;34527;45.618;5.130;2023-10-09T06:52:48;12.90;99.90
48728;DHT22;34527;45.618;5.130;2023-10-09T06:55:26;13.00;99.90
48728;DHT22;34527;45.618;5.130;2023-10-09T06:58:18;13.00;99.90
48728;DHT22;34527;45.618;5.130;2023-10-09T07:01:07;13.10;99.90
48728;DHT22;34527;45.618;5.130;2023-10-09T07:03:45;13.20;99.90
48728;DHT22;34527;45.618;5.130;2023-10-09T07:06:26;13.30;99.90
48728;DHT22;34527;45.618;5.130;2023-10-09T07:09:00;13.50;99.90
48728;DHT22;34527;45.618;5.130;2023-10-09T07:11:32;13.60;99.90
48728;DHT22;34527;45.618;5.130;2023-10-09T07:14:08;13.70;99.90
48728;DHT22;34527;45.618;5.130;2023-10-09T07:16:37;13.70;99.90
48728;DHT22;34527;45.618;5.130;2023-10-09T07:19:23;13.80;99.90
48728;DHT22;34527;45.618;5.130;2023-10-09T07:22:12;13.90;99.90
48728;DHT22;34527;45.618;5.130;2023-10-09T07:24:56;14.00;99.90
48728;DHT22;34527;45.618;5.130;2023-10-09T07:27:25;14.20;99.90
48728;DHT22;34527;45.618;5.130;2023-10-09T07:30:14;14.30;99.90
48728;DHT22;34527;45.618;5.130;2023-10-09T07:33:05;14.40;99.90
48728;DHT22;34527;45.618;5.130;2023-10-09T07:35:44;14.60;99.90
48728;DHT22;34527;45.618;5.130;2023-10-09T07:38:17;14.70;99.90
48728;DHT22;34527;45.618;5.130;2023-10-09T07:40:51;14.90;99.90
48728;DHT22;34527;45.618;5.130;2023-10-09T07:43:36;15.00;99.90
48728;DHT22;34527;45.618;5.130;2023-10-09T07:46:06;15.20;99.90
48728;DHT22;34527;45.618;5.130;2023-10-09T07:49:01;15.30;99.90
48728;DHT22;34527;45.618;5.130;2023-10-09T07:51:38;15.50;99.90
48728;DHT22;34527;45.618;5.130;2023-10-09T07:54:08;15.60;99.90
48728;DHT22;34527;45.618;5.130;2023-10-09T07:56:38;15.80;99.90
48728;DHT22;34527;45.618;5.130;2023-10-09T07:59:07;15.90;99.90
48728;DHT22;34527;45.618;5.130;2023-10-09T08:01:43;16.10;99.90
48728;DHT22;34527;45.618;5.130;2023-10-09T08:04:23;16.30;99.90
48728;DHT22;34527;45.618;5.130;2023-10-09T08:07:11;16.40;99.90
48728;DHT22;34527;45.618;5.130;2023-10-09T08:09:54;16.60;99.90
48728;DHT22;34527;45.618;5.130;2023-10-09T08:12:39;16.80;99.90
48728;DHT22;34527;45.618;5.130;2023-10-09T08:15:23;16.90;99.90
48728;DHT22;34527;45.618;5.130;2023-10-09T08:18:00;17.00;99.90
48728;DHT22;34527;45.618;5.130;2023-10-09T08:20:31;17.20;99.90
48728;DHT22;34527;45.618;5.130;2023-10-09T08:23:16;17.30;99.90
48728;DHT22;34527;45.618;5.130;2023-10-09T08:25:59;17.40;99.90
48728;DHT22;34527;45.618;5.130;2023-10-09T08:28:35;17.50;99.90
48728;DHT22;34527;45.618;5.130;2023-10-09T08:31:14;17.60;99.90
48728;DHT22;34527;45.618;5.130;2023-10-09T08:34:03;17.70;99.90
48728;DHT22;34527;45.618;5.130;2023-10-09T08:36:29;17.80;99.90
48728;DHT22;34527;45.618;5.130;2023-10-09T08:39:02;18.00;99.90
48728;DHT22;34527;45.618;5.130;2023-10-09T08:41:40;18.10;99.90
48728;DHT22;34527;45.618;5.130;2023-10-09T08:44:07;18.20;99.90
48728;DHT22;34527;45.618;5.130;2023-10-09T08:46:34;18.30;99.90
48728;DHT22;34527;45.618;5.130;2023-10-09T08:48:59;18.40;99.90
48728;DHT22;34527;45.618;5.130;2023-10-09T08:51:27;18.50;99.90
48728;DHT22;34527;45.618;5.130;2023-10-09T08:53:55;18.60;99.90
48728;DHT22;34527;45.618;5.130;2023-10-09T08:56:21;18.70;99.90
48728;DHT22;34527;45.618;5.130;2023-10-09T08:58:58;18.80;99.90
48728;DHT22;34527;45.618;5.130;2023-10-09T09:01:27;18.80;99.90
48728;DHT22;34527;45.618;5.130;2023-10-09T09:03:57;18.90;99.90
48728;DHT22;34527;45.618;5.130;2023-10-09T09:06:25;19.10;99.90
48728;DHT22;34527;45.618;5.130;2023-10-09T09:08:51;19.10;99.90
48728;DHT22;34527;45.618;5.130;2023-10-09T09:11:25;19.30;99.90
48728;DHT22;34527;45.618;5.130;2023-10-09T09:16:25;19.50;99.90
48728;DHT22;34527;45.618;5.130;2023-10-09T09:19:00;19.50;99.90
48728;DHT22;34527;45.618;5.130;2023-10-09T09:21:29;19.60;99.90
48728;DHT22;34527;45.618;5.130;2023-10-09T09:24:00;19.70;99.90
48728;DHT22;34527;45.618;5.130;2023-10-09T09:26:37;19.80;99.90
48728;DHT22;34527;45.618;5.130;2023-10-09T09:29:05;19.80;99.90
48728;DHT22;34527;45.618;5.130;2023-10-09T09:31:32;19.90;99.90
48728;DHT22;34527;45.618;5.130;2023-10-09T09:34:07;19.90;99.90
48728;DHT22;34527;45.618;5.130;2023-10-09T09:36:55;20.00;99.90
48728;DHT22;34527;45.618;5.130;2023-10-09T09:39:31;20.10;99.90
48728;DHT22;34527;45.618;5.130;2023-10-09T09:41:58;20.10;99.90
48728;DHT22;34527;45.618;5.130;2023-10-09T09:44:31;20.20;99.90
48728;DHT22;34527;45.618;5.130;2023-10-09T09:46:59;20.20;99.90
48728;DHT22;34527;45.618;5.130;2023-10-09T09:49:27;20.30;99.90
48728;DHT22;34527;45.618;5.130;2023-10-09T09:52:00;20.40;99.90
48728;DHT22;34527;45.618;5.130;2023-10-09T09:54:26;20.50;99.90
48728;DHT22;34527;45.618;5.130;2023-10-09T09:56:54;20.50;99.90
48728;DHT22;34527;45.618;5.130;2023-10-09T09:59:26;20.70;99.90
48728;DHT22;34527;45.618;5.130;2023-10-09T10:01:59;20.80;99.90
48728;DHT22;34527;45.618;5.130;2023-10-09T10:04:32;20.80;99.90
48728;DHT22;34527;45.618;5.130;2023-10-09T10:07:01;20.90;99.90
48728;DHT22;34527;45.618;5.130;2023-10-09T10:09:41;21.00;99.90
48728;DHT22;34527;45.618;5.130;2023-10-09T10:12:11;21.10;99.90
48728;DHT22;34527;45.618;5.130;2023-10-09T10:14:58;21.10;99.90
48728;DHT22;34527;45.618;5.130;2023-10-09T10:17:25;21.30;99.90
48728;DHT22;34527;45.618;5.130;2023-10-09T10:20:01;21.40;99.90
48728;DHT22;34527;45.618;5.130;2023-10-09T10:22:38;21.40;99.90
48728;DHT22;34527;45.618;5.130;2023-10-09T10:25:04;21.50;99.90
48728;DHT22;34527;45.618;5.130;2023-10-09T10:27:34;21.60;99.90
48728;DHT22;34527;45.618;5.130;2023-10-09T10:35:17;21.90;99.90
48728;DHT22;34527;45.618;5.130;2023-10-09T10:37:45;22.00;99.90
48728;DHT22;34527;45.618;5.130;2023-10-09T10:40:28;22.10;99.90
48728;DHT22;34527;45.618;5.130;2023-10-09T10:43:17;22.10;99.90
48728;DHT22;34527;45.618;5.130;2023-10-09T10:46:05;22.20;99.90
48728;DHT22;34527;45.618;5.130;2023-10-09T10:48:40;22.30;99.90
48728;DHT22;34527;45.618;5.130;2023-10-09T10:51:06;22.40;99.90
48728;DHT22;34527;45.618;5.130;2023-10-09T10:53:32;22.40;99.90
48728;DHT22;34527;45.618;5.130;2023-10-09T10:56:13;22.50;99.90
48728;DHT22;34527;45.618;5.130;2023-10-09T10:58:39;22.60;99.90
48728;DHT22;34527;45.618;5.130;2023-10-09T11:01:24;22.70;99.90
48728;DHT22;34527;45.618;5.130;2023-10-09T11:03:51;22.70;99.90
48728;DHT22;34527;45.618;5.130;2023-10-09T11:06:29;22.80;99.90
48728;DHT22;34527;45.618;5.130;2023-10-09T11:09:09;22.80;99.90
48728;DHT22;34527;45.618;5.130;2023-10-09T11:11:36;22.90;99.90
48728;DHT22;34527;45.618;5.130;2023-10-09T11:14:13;23.10;99.90
48728;DHT22;34527;45.618;5.130;2023-10-09T11:16:43;23.00;99.90
48728;DHT22;34527;45.618;5.130;2023-10-09T11:19:14;23.10;99.90
48728;DHT22;34527;45.618;5.130;2023-10-09T11:21:57;23.20;99.90
48728;DHT22;34527;45.618;5.130;2023-10-09T11:24:28;23.30;99.90
48728;DHT22;34527;45.618;5.130;2023-10-09T11:26:58;23.30;99.90
48728;DHT22;34527;45.618;5.130;2023-10-09T11:29:31;23.30;99.90
48728;DHT22;34527;45.618;5.130;2023-10-09T11:32:14;23.40;99.90
48728;DHT22;34527;45.618;5.130;2023-10-09T11:34:47;23.40;99.90
48728;DHT22;34527;45.618;5.130;2023-10-09T11:37:23;23.50;99.90
48728;DHT22;34527;45.618;5.130;2023-10-09T11:39:56;23.50;99.90
48728;DHT22;34527;45.618;5.130;2023-10-09T11:42:23;23.60;99.90
48728;DHT22;34527;45.618;5.130;2023-10-09T11:45:24;23.60;99.90
48728;DHT22;34527;45.618;5.130;2023-10-09T11:47:54;23.70;99.90
48728;DHT22;34527;45.618;5.130;2023-10-09T11:50:42;23.70;99.90
48728;DHT22;34527;45.618;5.130;2023-10-09T11:53:09;23.80;99.90
48728;DHT22;34527;45.618;5.130;2023-10-09T11:55:55;23.90;99.90
48728;DHT22;34527;45.618;5.130;2023-10-09T11:58:21;24.00;99.90
48728;DHT22;34527;45.618;5.130;2023-10-09T12:00:58;23.90;99.90
48728;DHT22;34527;45.618;5.130;2023-10-09T12:03:31;24.00;99.90
48728;DHT22;34527;45.618;5.130;2023-10-09T12:05:57;24.10;99.90
48728;DHT22;34527;45.618;5.130;2023-10-09T12:08:25;24.20;99.90
48728;DHT22;34527;45.618;5.130;2023-10-09T12:10:55;24.20;99.90
48728;DHT22;34527;45.618;5.130;2023-10-09T12:13:22;24.30;99.90
48728;DHT22;34527;45.618;5.130;2023-10-09T12:15:49;24.40;99.90
48728;DHT22;34527;45.618;5.130;2023-10-09T12:18:19;24.40;99.90
48728;DHT22;34527;45.618;5.130;2023-10-09T12:20:45;24.60;99.90
48728;DHT22;34527;45.618;5.130;2023-10-09T12:23:18;24.60;99.90
48728;DHT22;34527;45.618;5.130;2023-10-09T12:25:44;24.60;99.90
48728;DHT22;34527;45.618;5.130;2023-10-09T12:28:12;24.60;99.90
48728;DHT22;34527;45.618;5.130;2023-10-09T12:30:38;24.70;99.90
48728;DHT22;34527;45.618;5.130;2023-10-09T12:33:08;24.70;99.90
48728;DHT22;34527;45.618;5.130;2023-10-09T12:35:40;24.80;99.90
48728;DHT22;34527;45.618;5.130;2023-10-09T12:38:07;24.80;99.90
48728;DHT22;34527;45.618;5.130;2023-10-09T12:40:36;24.90;99.90
48728;DHT22;34527;45.618;5.130;2023-10-09T12:43:03;24.90;99.90
48728;DHT22;34527;45.618;5.130;2023-10-09T12:45:29;25.00;99.90
48728;DHT22;34527;45.618;5.130;2023-10-09T12:48:01;25.00;99.90
48728;DHT22;34527;45.618;5.130;2023-10-09T12:50:34;25.10;99.90
48728;DHT22;34527;45.618;5.130;2023-10-09T12:53:00;25.10;99.90
48728;DHT22;34527;45.618;5.130;2023-10-09T12:55:38;25.20;99.90
48728;DHT22;34527;45.618;5.130;2023-10-09T12:58:08;25.20;99.90
48728;DHT22;34527;45.618;5.130;2023-10-09T13:00:38;25.20;99.90
48728;DHT22;34527;45.618;5.130;2023-10-09T13:03:12;25.30;99.90
48728;DHT22;34527;45.618;5.130;2023-10-09T13:08:26;25.30;99.90
48728;DHT22;34527;45.618;5.130;2023-10-09T13:11:04;25.30;99.90
48728;DHT22;34527;45.618;5.130;2023-10-09T13:13:45;25.30;99.90
48728;DHT22;34527;45.618;5.130;2023-10-09T13:16:21;25.30;99.90
48728;DHT22;34527;45.618;5.130;2023-10-09T13:18:50;25.30;99.90
48728;DHT22;34527;45.618;5.130;2023-10-09T13:21:21;25.30;99.90
48728;DHT22;34527;45.618;5.130;2023-10-09T13:23:48;25.40;99.90
48728;DHT22;34527;45.618;5.130;2023-10-09T13:26:18;25.40;99.90
48728;DHT22;34527;45.618;5.130;2023-10-09T13:28:51;25.40;99.90
48728;DHT22;34527;45.618;5.130;2023-10-09T13:31:18;25.50;99.90
48728;DHT22;34527;45.618;5.130;2023-10-09T13:33:44;25.50;99.90
48728;DHT22;34527;45.618;5.130;2023-10-09T13:36:11;25.50;99.90
48728;DHT22;34527;45.618;5.130;2023-10-09T13:38:53;25.50;99.90
48728;DHT22;34527;45.618;5.130;2023-10-09T13:41:19;25.60;99.90
48728;DHT22;34527;45.618;5.130;2023-10-09T13:43:44;25.60;99.90
48728;DHT22;34527;45.618;5.130;2023-10-09T13:46:10;25.60;99.90
48728;DHT22;34527;45.618;5.130;2023-10-09T13:48:43;25.60;99.90
48728;DHT22;34527;45.618;5.130;2023-10-09T13:51:10;25.70;99.90
48728;DHT22;34527;45.618;5.130;2023-10-09T13:53:42;25.70;99.90
48728;DHT22;34527;45.618;5.130;2023-10-09T13:56:14;25.80;99.90
48728;DHT22;34527;45.618;5.130;2023-10-09T13:58:41;25.80;99.90
48728;DHT22;34527;45.618;5.130;2023-10-09T14:01:11;25.80;99.90
48728;DHT22;34527;45.618;5.130;2023-10-09T14:03:46;25.90;99.90
48728;DHT22;34527;45.618;5.130;2023-10-09T14:06:16;25.90;99.90
48728;DHT22;34527;45.618;5.130;2023-10-09T14:08:45;26.00;99.90
48728;DHT22;34527;45.618;5.130;2023-10-09T14:11:11;26.00;99.90
48728;DHT22;34527;45.618;5.130;2023-10-09T14:13:42;26.00;99.90
48728;DHT22;34527;45.618;5.130;2023-10-09T14:16:08;26.00;99.90
48728;DHT22;34527;45.618;5.130;2023-10-09T14:18:50;26.00;99.90
48728;DHT22;34527;45.618;5.130;2023-10-09T14:21:19;26.00;99.90
48728;DHT22;34527;45.618;5.130;2023-10-09T14:23:45;26.00;99.90
48728;DHT22;34527;45.618;5.130;2023-10-09T14:26:13;26.00;99.90
48728;DHT22;34527;45.618;5.130;2023-10-09T14:28:39;26.00;99.90
48728;DHT22;34527;45.618;5.130;2023-10-09T14:31:05;26.00;99.90
48728;DHT22;34527;45.618;5.130;2023-10-09T14:33:36;26.00;99.90
48728;DHT22;34527;45.618;5.130;2023-10-09T14:36:02;26.00;99.90
48728;DHT22;34527;45.618;5.130;2023-10-09T14:38:31;26.00;99.90
48728;DHT22;34527;45.618;5.130;2023-10-09T14:40:58;26.00;99.90
48728;DHT22;34527;45.618;5.130;2023-10-09T14:43:25;26.00;99.90
48728;DHT22;34527;45.618;5.130;2023-10-09T14:45:58;26.00;99.90
48728;DHT22;34527;45.618;5.130;2023-10-09T14:48:24;26.00;99.90
48728;DHT22;34527;45.618;5.130;2023-10-09T14:50:54;26.00;99.90
48728;DHT22;34527;45.618;5.130;2023-10-09T14:53:21;26.10;99.90
48728;DHT22;34527;45.618;5.130;2023-10-09T14:55:54;26.00;99.90
48728;DHT22;34527;45.618;5.130;2023-10-09T14:58:20;26.00;99.90
48728;DHT22;34527;45.618;5.130;2023-10-09T15:00:45;26.10;99.90
48728;DHT22;34527;45.618;5.130;2023-10-09T15:03:14;26.10;99.90
48728;DHT22;34527;45.618;5.130;2023-10-09T15:05:43;26.10;99.90
48728;DHT22;34527;45.618;5.130;2023-10-09T15:08:09;26.10;99.90
48728;DHT22;34527;45.618;5.130;2023-10-09T15:10:48;26.00;99.90
48728;DHT22;34527;45.618;5.130;2023-10-09T15:13:15;26.00;99.90
48728;DHT22;34527;45.618;5.130;2023-10-09T15:15:45;26.00;99.90
48728;DHT22;34527;45.618;5.130;2023-10-09T15:18:11;25.90;99.90
48728;DHT22;34527;45.618;5.130;2023-10-09T15:20:41;25.90;99.90
48728;DHT22;34527;45.618;5.130;2023-10-09T15:23:08;25.80;99.90
48728;DHT22;34527;45.618;5.130;2023-10-09T15:25:33;25.80;99.90
48728;DHT22;34527;45.618;5.130;2023-10-09T15:28:00;25.80;99.90
48728;DHT22;34527;45.618;5.130;2023-10-09T15:30:26;25.70;99.90
48728;DHT22;34527;45.618;5.130;2023-10-09T15:32:54;25.70;99.90
48728;DHT22;34527;45.618;5.130;2023-10-09T15:35:22;25.70;99.90
48728;DHT22;34527;45.618;5.130;2023-10-09T15:37:48;25.70;99.90
48728;DHT22;34527;45.618;5.130;2023-10-09T15:40:20;25.70;99.90
48728;DHT22;34527;45.618;5.130;2023-10-09T15:42:50;25.60;99.90
48728;DHT22;34527;45.618;5.130;2023-10-09T15:45:19;25.50;99.90
48728;DHT22;34527;45.618;5.130;2023-10-09T15:47:47;25.40;99.90
48728;DHT22;34527;45.618;5.130;2023-10-09T15:50:13;25.40;99.90
48728;DHT22;34527;45.618;5.130;2023-10-09T15:52:40;25.40;99.90
48728;DHT22;34527;45.618;5.130;2023-10-09T15:55:07;25.30;99.90
48728;DHT22;34527;45.618;5.130;2023-10-09T15:57:41;25.20;99.90
48728;DHT22;34527;45.618;5.130;2023-10-09T16:00:08;25.20;99.90
48728;DHT22;34527;45.618;5.130;2023-10-09T16:02:42;25.10;99.90
48728;DHT22;34527;45.618;5.130;2023-10-09T16:05:09;25.00;99.90
48728;DHT22;34527;45.618;5.130;2023-10-09T16:07:40;24.90;99.90
48728;DHT22;34527;45.618;5.130;2023-10-09T16:10:07;24.80;99.90
48728;DHT22;34527;45.618;5.130;2023-10-09T16:12:36;24.70;99.90
48728;DHT22;34527;45.618;5.130;2023-10-09T16:15:02;24.60;99.90